Time;durP1;ratioP1;P1;durP2;ratioP2;P2;SDS_P1;SDS_P2;PMS_P1;PMS_P2;Temp;Humidity;BMP_temperature;BMP_pressure;BME280_temperature;BME280_humidity;BME280_pressure;Samples;Min_cycle;Max_cycle;Signal;HPM_P1;HPM_P2
2023/12/17 00:00:59;;;;;;;33.95;21.75;;;;;;;9.04;100.00;103725.38;6286916;22;20003;-89
2023/12/17 00:03:26;;;;;;;33.47;21.92;;;;;;;8.97;100.00;103707.34;6340406;22;20354;-90
2023/12/17 00:05:52;;;;;;;36.10;23.08;;;;;;;9.07;100.00;103728.19;6313213;22;20089;-90
2023/12/17 00:08:19;;;;;;;33.10;21.58;;;;;;;8.77;100.00;103677.06;6340064;22;20053;-90
2023/12/17 00:10:46;;;;;;;38.20;21.88;;;;;;;9.06;100.00;103713.19;6312568;22;20011;-90
2023/12/17 00:13:11;;;;;;;35.03;21.95;;;;;;;9.09;100.00;103725.66;6339434;22;20341;-90
2023/12/17 00:15:36;;;;;;;32.47;21.63;;;;;;;8.95;100.00;103687.84;6340095;22;20082;-90
2023/12/17 00:18:02;;;;;;;36.35;21.80;;;;;;;9.10;100.00;103720.47;6312273;22;20039;-90
2023/12/17 00:20:27;;;;;;;31.58;21.02;;;;;;;9.13;100.00;103711.84;6312256;22;20011;-90
2023/12/17 00:22:52;;;;;;;31.90;21.50;;;;;;;9.04;100.00;103696.38;6286652;22;20011;-90
2023/12/17 00:25:18;;;;;;;32.38;21.65;;;;;;;9.09;100.00;103702.84;6312443;22;20434;-90
2023/12/17 00:27:43;;;;;;;33.90;20.65;;;;;;;9.07;100.00;103693.00;6339947;22;20060;-90
2023/12/17 00:30:09;;;;;;;31.83;20.67;;;;;;;9.03;100.00;103683.97;6286631;22;20090;-90
2023/12/17 00:32:35;;;;;;;34.50;22.08;;;;;;;9.12;100.00;103694.19;6286733;22;20011;-89
2023/12/17 00:35:03;;;;;;;31.80;20.23;;;;;;;9.11;100.00;103690.63;6312329;22;20007;-90
2023/12/17 00:37:31;;;;;;;32.00;21.15;;;;;;;9.08;100.00;103687.84;6287224;22;20017;-93
2023/12/17 00:40:10;;;;;;;;;;;;;;;;;;;;;
2023/12/17 00:42:40;;;;;;;33.17;21.08;;;;;;;9.08;100.00;103685.19;6315257;22;20082;-92
2023/12/17 00:45:09;;;;;;;36.03;21.38;;;;;;;8.75;100.00;103618.97;6312195;22;20003;-91
2023/12/17 00:47:37;;;;;;;35.72;21.80;;;;;;;8.75;100.00;103623.34;6312056;22;20021;-90
2023/12/17 00:50:08;;;;;;;34.60;21.63;;;;;;;8.76;100.00;103627.78;6311821;22;20075;-91
2023/12/17 00:52:48;;;;;;;31.67;20.25;;;;;;;8.98;100.00;103666.94;6312200;22;20056;-92
2023/12/17 00:58:09;;;;;;;35.00;20.85;;;;;;;8.99;100.00;103664.44;6279119;22;20464;-90
2023/12/17 01:00:35;;;;;;;34.05;22.02;;;;;;;8.99;100.00;103655.59;6311951;22;20010;-90
2023/12/17 01:03:03;;;;;;;35.20;22.10;;;;;;;8.79;100.00;103625.34;6312102;22;20071;-89
2023/12/17 01:05:29;;;;;;;34.03;22.50;;;;;;;9.04;100.00;103654.16;6339335;22;20007;-90
2023/12/17 01:07:57;;;;;;;32.72;21.85;;;;;;;8.70;100.00;103588.78;6311793;22;20025;-90
2023/12/17 01:10:25;;;;;;;34.92;21.88;;;;;;;8.97;100.00;103641.41;6339648;22;20006;-90
2023/12/17 01:12:53;;;;;;;35.22;21.00;;;;;;;9.15;100.00;103675.91;6339431;22;20006;-89
2023/12/17 01:15:20;;;;;;;35.05;20.95;;;;;;;8.77;100.00;103600.59;6339657;22;20007;-88
2023/12/17 01:17:48;;;;;;;33.50;21.08;;;;;;;8.91;100.00;103620.84;6311828;22;20072;-91
2023/12/17 01:20:14;;;;;;;35.45;21.27;;;;;;;8.95;100.00;103628.13;6339481;22;19999;-91
2023/12/17 01:22:39;;;;;;;32.53;21.73;;;;;;;8.96;100.00;103629.94;6339109;22;20056;-91
2023/12/17 01:25:05;;;;;;;30.90;20.08;;;;;;;8.93;100.00;103628.84;6339189;22;20486;-90
2023/12/17 01:27:31;;;;;;;34.55;20.73;;;;;;;9.02;100.00;103647.88;6312220;22;20002;-89
2023/12/17 01:29:56;;;;;;;37.60;21.98;;;;;;;9.09;100.00;103670.28;6285987;22;20086;-90
2023/12/17 01:32:22;;;;;;;37.83;21.75;;;;;;;9.00;100.00;103667.97;6339489;22;20025;-90
2023/12/17 01:34:47;;;;;;;33.67;21.35;;;;;;;8.80;100.00;103631.53;6339428;22;20034;-91
2023/12/17 01:37:15;;;;;;;33.17;20.48;;;;;;;8.82;100.00;103635.16;6311940;22;20006;-93
2023/12/17 01:39:40;;;;;;;35.53;21.63;;;;;;;8.94;100.00;103646.47;6312023;22;20030;-92
2023/12/17 01:42:06;;;;;;;35.15;21.63;;;;;;;9.20;100.00;103685.94;6311620;22;20003;-92
2023/12/17 01:44:34;;;;;;;36.97;22.23;;;;;;;9.03;100.00;103663.78;6339493;22;20030;-92
2023/12/17 01:47:02;;;;;;;35.85;21.98;;;;;;;8.81;100.00;103620.16;6311488;22;20011;-91
2023/12/17 01:49:31;;;;;;;37.97;23.42;;;;;;;9.05;100.00;103673.53;6280547;22;20015;-92
2023/12/17 01:51:58;;;;;;;34.72;21.33;;;;;;;9.08;100.00;103678.97;6307613;22;20003;-92
2023/12/17 01:54:24;;;;;;;36.40;22.10;;;;;;;9.00;100.00;103668.88;6307652;22;20030;-91
2023/12/17 01:56:59;;;;;;;35.67;21.55;;;;;;;8.87;100.00;103647.84;6332702;22;20425;-91
2023/12/17 01:59:27;;;;;;;38.92;21.85;;;;;;;9.02;100.00;103672.50;6308384;22;20011;-91
2023/12/17 02:01:55;;;;;;;33.08;20.85;;;;;;;9.01;100.00;103673.34;6308151;22;20376;-92
2023/12/17 02:04:23;;;;;;;36.88;21.40;;;;;;;9.06;100.00;103672.72;6306597;22;20018;-92
2023/12/17 02:06:56;;;;;;;34.65;21.50;;;;;;;8.91;100.00;103654.22;6307872;22;20007;-92
2023/12/17 02:09:23;;;;;;;35.15;21.30;;;;;;;8.78;100.00;103634.09;6306104;22;20010;-92
2023/12/17 02:11:51;;;;;;;34.53;21.17;;;;;;;9.04;100.00;103677.91;6307738;22;20421;-92
2023/12/17 02:14:21;;;;;;;35.53;21.45;;;;;;;8.92;100.00;103659.59;6306362;22;20422;-91
2023/12/17 02:16:47;;;;;;;32.45;20.50;;;;;;;8.76;100.00;103627.78;6308161;22;20013;-90
2023/12/17 02:19:12;;;;;;;34.15;20.88;;;;;;;8.68;100.00;103616.75;6305826;22;20370;-91
2023/12/17 02:21:40;;;;;;;37.03;19.98;;;;;;;8.75;100.00;103626.88;6307393;22;20006;-91
2023/12/17 02:24:11;;;;;;;35.33;20.40;;;;;;;8.88;100.00;103635.56;6306159;22;20008;-91
2023/12/17 02:26:40;;;;;;;34.55;19.63;;;;;;;8.75;100.00;103608.44;6307365;22;19999;-91
2023/12/17 02:29:08;;;;;;;31.95;19.50;;;;;;;9.01;100.00;103654.88;6306010;22;20026;-92
2023/12/17 02:31:36;;;;;;;31.42;19.35;;;;;;;8.97;100.00;103651.94;6306103;22;20007;-91
2023/12/17 02:34:02;;;;;;;28.40;18.23;;;;;;;8.98;100.00;103649.41;6307675;22;20003;-91
2023/12/17 02:36:32;;;;;;;29.30;18.52;;;;;;;8.92;100.00;103645.50;6307208;22;20003;-91
2023/12/17 02:38:57;;;;;;;32.67;19.13;;;;;;;8.90;100.00;103644.47;6306052;22;20007;-92
2023/12/17 02:41:23;;;;;;;29.85;18.65;;;;;;;9.07;100.00;103674.53;6332075;22;20444;-92
2023/12/17 02:43:48;;;;;;;29.77;18.40;;;;;;;8.83;100.00;103623.81;6306980;22;20000;-92
2023/12/17 02:46:14;;;;;;;28.35;18.00;;;;;;;9.03;100.00;103661.13;6307274;22;20011;-92
2023/12/17 02:48:41;;;;;;;32.65;18.70;;;;;;;9.03;100.00;103658.50;6305557;22;20086;-91
2023/12/17 02:51:06;;;;;;;31.05;18.85;;;;;;;8.86;100.00;103626.63;6307603;22;20003;-92
2023/12/17 02:53:39;;;;;;;29.00;18.70;;;;;;;9.20;100.00;103688.56;6305905;22;20011;-91
2023/12/17 02:56:11;;;;;;;28.98;17.58;;;;;;;9.24;100.00;103690.59;6307332;22;20010;-92
2023/12/17 02:58:39;;;;;;;30.98;17.98;;;;;;;8.84;100.00;103621.28;6281309;22;20037;-92
2023/12/17 03:01:04;;;;;;;31.90;18.75;;;;;;;8.94;100.00;103638.56;6305858;22;20019;-92
2023/12/17 03:03:32;;;;;;;33.72;18.95;;;;;;;8.93;100.00;103635.03;6305823;22;20429;-92
2023/12/17 03:05:58;;;;;;;32.88;19.15;;;;;;;8.94;100.00;103635.94;6305893;22;20047;-92
2023/12/17 03:08:25;;;;;;;32.13;19.63;;;;;;;8.96;100.00;103637.84;6305384;22;20086;-91
2023/12/17 03:10:53;;;;;;;30.27;19.17;;;;;;;9.16;100.00;103668.09;6307426;22;20056;-92
2023/12/17 03:13:21;;;;;;;33.30;19.95;;;;;;;8.79;100.00;103601.63;6307148;22;20472;-92
2023/12/17 03:15:46;;;;;;;32.65;19.63;;;;;;;8.84;100.00;103610.72;6307021;22;20024;-91
2023/12/17 03:18:30;;;;;;;;;;;;;;;;;;;;;
2023/12/17 03:20:56;;;;;;;31.75;18.88;;;;;;;8.74;100.00;103598.72;6307953;22;20078;-92
2023/12/17 03:23:21;;;;;;;31.60;19.27;;;;;;;8.95;100.00;103648.28;6281904;22;20053;-92
2023/12/17 03:25:49;;;;;;;27.50;17.92;;;;;;;8.77;100.00;103611.16;6309525;22;20034;-92
2023/12/17 03:28:17;;;;;;;28.23;17.40;;;;;;;8.94;100.00;103639.47;6307698;22;20015;-91
2023/12/17 03:30:45;;;;;;;26.27;17.00;;;;;;;8.83;100.00;103615.91;6307832;22;20434;-91
2023/12/17 03:33:10;;;;;;;25.77;16.38;;;;;;;8.81;100.00;103615.78;6309415;22;20485;-92
2023/12/17 03:35:36;;;;;;;25.10;15.55;;;;;;;8.80;100.00;103619.25;6309279;22;20007;-91
2023/12/17 03:38:03;;;;;;;25.05;16.13;;;;;;;8.75;100.00;103615.44;6308981;22;20003;-91
2023/12/17 03:40:31;;;;;;;25.70;14.82;;;;;;;8.65;100.00;103591.91;6308599;22;20007;-91
2023/12/17 03:42:59;;;;;;;21.65;14.38;;;;;;;8.62;100.00;103595.28;6306951;22;20030;-91
2023/12/17 03:45:25;;;;;;;22.83;14.18;;;;;;;8.79;100.00;103617.44;6307343;22;20026;-91
2023/12/17 03:47:50;;;;;;;20.83;13.98;;;;;;;8.83;100.00;103626.47;6311082;22;20078;-91
2023/12/17 03:50:19;;;;;;;22.58;13.65;;;;;;;8.64;100.00;103588.38;6312925;22;20007;-91
2023/12/17 03:52:46;;;;;;;20.83;13.52;;;;;;;8.61;100.00;103589.91;6338841;22;20124;-91
2023/12/17 03:55:15;;;;;;;22.92;13.50;;;;;;;9.00;100.00;103646.88;6313122;22;20306;-91
2023/12/17 03:57:41;;;;;;;19.90;13.02;;;;;;;8.70;100.00;103596.69;6340659;22;20030;-92
2023/12/17 04:00:10;;;;;;;19.90;12.60;;;;;;;8.98;100.00;103640.59;6312435;22;20030;-91
2023/12/17 04:02:38;;;;;;;19.70;12.52;;;;;;;8.98;100.00;103635.31;6338969;22;20340;-91
2023/12/17 04:05:06;;;;;;;17.85;12.45;;;;;;;8.63;100.00;103570.75;6312796;22;20081;-91
2023/12/17 04:07:34;;;;;;;17.48;11.70;;;;;;;8.58;100.00;103552.84;6340359;22;20063;-91
2023/12/17 04:10:01;;;;;;;18.17;11.77;;;;;;;8.84;100.00;103608.09;6312829;22;20010;-91
2023/12/17 04:12:26;;;;;;;17.63;11.60;;;;;;;8.57;100.00;103557.22;6312735;22;20029;-90
2023/12/17 04:14:52;;;;;;;16.92;11.05;;;;;;;8.75;100.00;103594.34;6340204;22;20006;-91
2023/12/17 04:17:17;;;;;;;17.58;11.43;;;;;;;8.75;100.00;103591.69;6340088;22;20408;-91
2023/12/17 04:19:43;;;;;;;17.38;11.23;;;;;;;8.77;100.00;103598.88;6312402;22;20006;-91
2023/12/17 04:22:18;;;;;;;18.13;12.18;;;;;;;8.93;100.00;103628.84;6338726;22;20009;-93
2023/12/17 04:24:45;;;;;;;19.77;11.98;;;;;;;8.57;100.00;103558.94;6314308;22;20014;-90
2023/12/17 04:27:16;;;;;;;21.45;12.13;;;;;;;8.80;100.00;103613.97;6312210;22;20009;-91
2023/12/17 04:29:45;;;;;;;18.92;10.40;;;;;;;8.55;100.00;103556.19;6312543;22;20010;-91
2023/12/17 04:32:11;;;;;;;16.92;10.75;;;;;;;8.53;100.00;103553.47;6338853;22;20325;-91
2023/12/17 04:34:37;;;;;;;16.65;11.02;;;;;;;8.65;100.00;103570.84;6338747;22;20003;-90
2023/12/17 04:37:05;;;;;;;18.40;11.02;;;;;;;8.73;100.00;103581.03;6312485;22;20040;-91
2023/12/17 04:39:33;;;;;;;16.20;10.77;;;;;;;8.89;100.00;103617.19;6287547;22;20463;-91
2023/12/17 04:41:58;;;;;;;16.95;10.95;;;;;;;8.68;100.00;103571.03;6312422;22;20042;-91
2023/12/17 04:44:24;;;;;;;19.60;12.27;;;;;;;8.88;100.00;103612.75;6339750;22;20007;-91
2023/12/17 04:46:49;;;;;;;19.55;10.90;;;;;;;8.44;100.00;103544.06;6340011;22;20476;-91
2023/12/17 04:49:15;;;;;;;21.95;12.13;;;;;;;8.88;100.00;103619.75;6339623;22;20014;-90
2023/12/17 04:51:40;;;;;;;17.88;11.20;;;;;;;8.75;100.00;103599.63;6312432;22;20019;-91
2023/12/17 04:54:06;;;;;;;20.42;12.25;;;;;;;8.67;100.00;103592.94;6312572;22;20341;-91
2023/12/17 04:56:31;;;;;;;22.05;12.50;;;;;;;8.69;100.00;103596.56;6324159;22;20435;-91
2023/12/17 04:58:56;;;;;;;19.30;11.13;;;;;;;8.58;100.00;103569.56;6349521;22;19999;-90
2023/12/17 05:01:22;;;;;;;21.58;11.93;;;;;;;8.49;100.00;103551.44;6312414;22;20014;-90
2023/12/17 05:03:47;;;;;;;19.15;12.07;;;;;;;8.43;100.00;103547.50;6312047;22;20002;-91
2023/12/17 05:06:15;;;;;;;19.17;11.73;;;;;;;8.72;100.00;103594.13;6339661;22;20266;-91
2023/12/17 05:08:40;;;;;;;19.42;12.23;;;;;;;8.56;100.00;103562.34;6311865;22;20370;-91
2023/12/17 05:11:06;;;;;;;23.10;13.43;;;;;;;8.40;100.00;103536.78;6311857;22;20055;-92
2023/12/17 05:13:33;;;;;;;19.85;12.32;;;;;;;8.52;100.00;103567.47;6311613;22;20006;-91
2023/12/17 05:16:02;;;;;;;19.45;11.45;;;;;;;8.44;100.00;103544.06;6311775;22;20434;-91
2023/12/17 05:18:32;;;;;;;21.42;12.38;;;;;;;8.34;100.00;103534.63;6339114;22;20054;-93
2023/12/17 05:20:59;;;;;;;19.63;12.63;;;;;;;8.59;100.00;103586.28;6312097;22;20002;-91
2023/12/17 05:23:25;;;;;;;17.27;11.35;;;;;;;8.35;100.00;103535.53;6339035;22;20002;-89
2023/12/17 05:25:50;;;;;;;20.73;12.85;;;;;;;8.37;100.00;103540.13;6311778;22;20329;-91
2023/12/17 05:28:16;;;;;;;19.58;12.00;;;;;;;8.42;100.00;103550.97;6338999;22;19998;-91
2023/12/17 05:30:42;;;;;;;20.23;13.02;;;;;;;8.77;100.00;103613.78;6339053;22;20422;-91
2023/12/17 05:33:07;;;;;;;21.38;12.90;;;;;;;8.57;100.00;103575.66;6311981;22;20038;-91
2023/12/17 05:35:35;;;;;;;18.92;12.27;;;;;;;8.63;100.00;103585.66;6339347;22;20010;-91
2023/12/17 05:38:00;;;;;;;20.40;12.18;;;;;;;8.80;100.00;103615.72;6311877;22;20087;-91
2023/12/17 05:40:26;;;;;;;20.73;12.18;;;;;;;8.54;100.00;103580.72;6286016;22;20006;-92
2023/12/17 05:42:51;;;;;;;20.40;13.40;;;;;;;8.53;100.00;103571.00;6311720;22;20002;-92
2023/12/17 05:45:16;;;;;;;20.42;12.90;;;;;;;8.74;100.00;103618.88;6339278;22;20425;-92
2023/12/17 05:47:42;;;;;;;20.98;11.98;;;;;;;8.74;100.00;103608.34;6339234;22;20010;-92
2023/12/17 05:50:09;;;;;;;18.25;12.38;;;;;;;8.64;100.00;103591.00;6285495;22;20425;-91
2023/12/17 05:52:34;;;;;;;18.17;12.85;;;;;;;8.75;100.00;103603.16;6311651;22;20010;-91
2023/12/17 05:55:00;;;;;;;19.65;12.45;;;;;;;8.73;100.00;103599.50;6311703;22;20298;-91
2023/12/17 05:57:25;;;;;;;19.85;12.25;;;;;;;8.61;100.00;103567.13;6285757;22;20007;-91
2023/12/17 05:59:50;;;;;;;18.88;11.80;;;;;;;8.71;100.00;103597.59;6338758;22;20007;-90
2023/12/17 06:02:16;;;;;;;17.38;11.43;;;;;;;8.71;100.00;103601.13;6285294;22;20378;-92
2023/12/17 06:04:41;;;;;;;19.83;12.52;;;;;;;8.71;100.00;103602.88;6338840;22;20472;-92
2023/12/17 06:07:07;;;;;;;19.70;12.43;;;;;;;8.71;100.00;103609.03;6311588;22;20018;-92
2023/12/17 06:09:32;;;;;;;17.30;12.02;;;;;;;8.67;100.00;103601.75;6311018;22;20030;-91
2023/12/17 06:11:57;;;;;;;18.48;11.43;;;;;;;8.69;100.00;103601.84;6311262;22;20003;-91
2023/12/17 06:14:24;;;;;;;17.60;11.50;;;;;;;8.67;100.00;103600.84;6311226;22;20093;-92
2023/12/17 06:16:52;;;;;;;17.55;10.50;;;;;;;8.63;100.00;103594.47;6338998;22;20006;-91
2023/12/17 06:19:17;;;;;;;17.65;10.40;;;;;;;8.62;100.00;103583.84;6311452;22;20425;-91
2023/12/17 06:21:43;;;;;;;15.52;10.70;;;;;;;8.68;100.00;103597.41;6285561;22;20007;-92
2023/12/17 06:24:08;;;;;;;19.48;10.23;;;;;;;8.64;100.00;103592.75;6311539;22;20413;-91
2023/12/17 06:26:36;;;;;;;17.52;10.73;;;;;;;8.65;100.00;103600.78;6311419;22;20421;-91
2023/12/17 06:29:01;;;;;;;15.38;9.25;;;;;;;8.56;100.00;103588.72;6338645;22;20010;-91
2023/12/17 06:31:27;;;;;;;13.30;9.25;;;;;;;8.61;100.00;103589.91;6285648;22;20317;-91
2023/12/17 06:33:53;;;;;;;13.95;9.00;;;;;;;8.63;100.00;103605.00;6311180;22;20427;-91
2023/12/17 06:36:20;;;;;;;12.95;8.48;;;;;;;8.57;100.00;103598.47;6311624;22;20497;-91
2023/12/17 06:38:45;;;;;;;13.27;8.75;;;;;;;8.64;100.00;103617.38;6311225;22;20426;-91
2023/12/17 06:41:11;;;;;;;12.48;7.93;;;;;;;8.46;100.00;103588.13;6311297;22;20015;-91
2023/12/17 06:43:36;;;;;;;12.48;8.40;;;;;;;8.53;100.00;103589.44;6259438;22;20055;-91
2023/12/17 06:46:03;;;;;;;18.02;8.88;;;;;;;8.61;100.00;103605.72;6338905;22;20011;-92
2023/12/17 06:48:29;;;;;;;11.85;8.43;;;;;;;8.46;100.00;103574.97;6285421;22;20100;-92
2023/12/17 06:50:54;;;;;;;14.43;8.73;;;;;;;8.62;100.00;103603.19;6285337;22;20419;-91
2023/12/17 06:53:20;;;;;;;13.48;8.38;;;;;;;8.56;100.00;103591.34;6285343;22;20038;-92
2023/12/17 06:55:45;;;;;;;13.30;8.60;;;;;;;8.59;100.00;103600.38;6311279;22;20113;-91
2023/12/17 06:58:11;;;;;;;12.32;8.65;;;;;;;8.60;100.00;103602.19;6311141;22;20017;-92
2023/12/17 07:00:36;;;;;;;14.52;8.98;;;;;;;8.63;100.00;103604.13;6338454;22;20014;-91
2023/12/17 07:03:02;;;;;;;15.48;9.18;;;;;;;8.55;100.00;103586.91;6338415;22;20011;-91
2023/12/17 07:05:28;;;;;;;14.52;9.70;;;;;;;8.43;100.00;103565.94;6338802;22;20357;-92
2023/12/17 07:07:53;;;;;;;14.10;10.43;;;;;;;8.55;100.00;103586.91;6338636;22;19999;-91
2023/12/17 07:10:20;;;;;;;17.02;11.18;;;;;;;8.56;100.00;103597.53;6285664;22;20455;-92
2023/12/17 07:12:45;;;;;;;17.55;11.38;;;;;;;8.50;100.00;103598.06;6310915;22;20452;-91
2023/12/17 07:15:11;;;;;;;18.05;11.25;;;;;;;8.53;100.00;103598.25;6311226;22;20007;-91
2023/12/17 07:17:36;;;;;;;19.50;11.57;;;;;;;8.15;100.00;103535.19;6310966;22;20029;-91
2023/12/17 07:20:02;;;;;;;19.05;12.15;;;;;;;8.41;100.00;103578.13;6310934;22;20393;-91
2023/12/17 07:22:28;;;;;;;16.88;10.98;;;;;;;8.42;100.00;103591.38;6338714;22;20085;-92
2023/12/17 07:24:53;;;;;;;19.42;11.63;;;;;;;8.45;100.00;103601.22;6310854;22;20154;-91
2023/12/17 07:27:19;;;;;;;13.95;9.40;;;;;;;8.46;100.00;103603.94;6311120;22;20003;-91
2023/12/17 07:29:44;;;;;;;14.50;9.00;;;;;;;8.02;100.00;103544.03;6259555;22;20098;-91
2023/12/17 07:32:09;;;;;;;15.45;9.75;;;;;;;8.31;100.00;103589.78;6311183;22;20007;-91
2023/12/17 07:34:35;;;;;;;13.50;8.90;;;;;;;8.36;100.00;103603.25;6338611;22;20406;-91
2023/12/17 07:37:00;;;;;;;15.90;9.38;;;;;;;8.41;100.00;103615.00;6311196;22;20007;-91
2023/12/17 07:39:27;;;;;;;15.80;9.40;;;;;;;8.34;100.00;103605.75;6311028;22;20010;-92
2023/12/17 07:41:52;;;;;;;16.15;9.73;;;;;;;8.44;100.00;103625.75;6310992;22;20007;-92
2023/12/17 07:44:18;;;;;;;16.30;10.30;;;;;;;8.44;100.00;103628.41;6310362;22;20429;-92
2023/12/17 07:46:43;;;;;;;14.32;9.60;;;;;;;8.43;100.00;103627.47;6310813;22;20085;-91
2023/12/17 07:49:09;;;;;;;14.60;9.68;;;;;;;8.44;100.00;103625.75;6310478;22;20018;-92
2023/12/17 07:51:34;;;;;;;15.98;10.02;;;;;;;8.42;100.00;103623.00;6284988;22;20014;-92
2023/12/17 07:54:00;;;;;;;16.35;10.65;;;;;;;8.33;100.00;103616.22;6311119;22;20003;-92
2023/12/17 07:56:26;;;;;;;14.77;9.60;;;;;;;8.38;100.00;103625.34;6338555;22;20405;-92
2023/12/17 07:58:52;;;;;;;16.38;9.48;;;;;;;8.38;100.00;103626.25;6285766;22;20022;-92
2023/12/17 08:01:29;;;;;;;13.88;9.48;;;;;;;8.25;100.00;103605.16;6313148;22;20003;-92
2023/12/17 08:03:55;;;;;;;15.30;9.23;;;;;;;8.35;100.00;103636.59;6286453;22;20353;-92
2023/12/17 08:06:21;;;;;;;15.43;10.35;;;;;;;8.23;100.00;103626.16;6312739;22;20068;-92
2023/12/17 08:08:47;;;;;;;14.65;9.05;;;;;;;8.11;100.00;103595.47;6312995;22;20007;-92
2023/12/17 08:11:12;;;;;;;14.93;8.80;;;;;;;8.26;100.00;103620.16;6345332;22;20366;-92
2023/12/17 08:13:38;;;;;;;13.02;8.27;;;;;;;8.27;100.00;103628.19;6311969;22;20007;-92
2023/12/17 08:16:04;;;;;;;14.63;8.93;;;;;;;8.28;100.00;103626.44;6312698;22;20063;-91
2023/12/17 08:18:32;;;;;;;12.85;7.95;;;;;;;8.19;100.00;103603.06;6312157;22;20141;-92
2023/12/17 08:20:57;;;;;;;16.98;8.38;;;;;;;8.26;100.00;103634.28;6288420;22;20086;-93
2023/12/17 08:23:23;;;;;;;15.07;8.25;;;;;;;8.14;100.00;103614.13;6314806;22;20037;-92
2023/12/17 08:25:49;;;;;;;12.65;7.53;;;;;;;8.18;100.00;103624.97;6339435;22;20003;-91
2023/12/17 08:28:16;;;;;;;14.30;7.90;;;;;;;8.06;100.00;103610.06;6339932;22;20060;-92
2023/12/17 08:30:41;;;;;;;13.07;8.63;;;;;;;8.17;100.00;103635.38;6286710;22;20352;-92
2023/12/17 08:33:07;;;;;;;12.35;7.97;;;;;;;8.14;100.00;103646.63;6339789;22;20089;-92
2023/12/17 08:35:32;;;;;;;13.25;7.93;;;;;;;7.97;100.00;103620.91;6313148;22;20030;-92
2023/12/17 08:38:03;;;;;;;12.02;8.32;;;;;;;8.07;100.00;103635.59;6286930;22;20014;-93
2023/12/17 08:40:30;;;;;;;11.07;7.57;;;;;;;7.94;100.00;103618.97;6340701;22;20015;-93
2023/12/17 08:42:55;;;;;;;12.63;7.95;;;;;;;8.09;100.00;103641.84;6313096;22;20011;-92
2023/12/17 08:45:23;;;;;;;11.30;8.02;;;;;;;8.04;100.00;103652.09;6286984;22;20409;-91
2023/12/17 08:47:48;;;;;;;11.48;8.05;;;;;;;7.88;100.00;103626.50;6339872;22;20011;-91
2023/12/17 08:50:16;;;;;;;13.25;9.23;;;;;;;7.74;100.00;103600.94;6306353;22;20026;-91
2023/12/17 08:52:42;;;;;;;14.15;9.00;;;;;;;8.00;100.00;103647.44;6307382;22;20102;-91
2023/12/17 08:55:07;;;;;;;12.65;8.40;;;;;;;7.96;100.00;103640.13;6307275;22;20119;-91
2023/12/17 08:57:33;;;;;;;14.77;9.65;;;;;;;7.81;100.00;103645.31;6307183;22;20007;-92
2023/12/17 08:59:58;;;;;;;12.18;8.20;;;;;;;7.73;100.00;103613.19;6308544;22;20011;-91
2023/12/17 09:02:23;;;;;;;14.38;9.02;;;;;;;7.86;100.00;103645.63;6306961;22;20284;-91
2023/12/17 09:04:51;;;;;;;14.88;8.85;;;;;;;7.90;100.00;103651.19;6306733;22;20391;-92
2023/12/17 09:07:17;;;;;;;13.30;8.77;;;;;;;7.89;100.00;103648.47;6307386;22;20045;-91
2023/12/17 09:09:43;;;;;;;15.10;10.57;;;;;;;7.88;100.00;103646.59;6308528;22;20318;-92
2023/12/17 09:12:08;;;;;;;14.90;9.50;;;;;;;7.84;100.00;103640.25;6306813;22;20378;-91
2023/12/17 09:14:35;;;;;;;15.55;9.73;;;;;;;7.70;100.00;103626.16;6308357;22;20014;-91
2023/12/17 09:17:01;;;;;;;18.70;10.23;;;;;;;7.77;100.00;103638.00;6281780;22;20341;-91
2023/12/17 09:19:26;;;;;;;17.15;9.90;;;;;;;7.74;100.00;103646.59;6280748;22;20017;-90
2023/12/17 09:21:52;;;;;;;18.80;10.98;;;;;;;7.51;100.00;103621.38;6281013;22;20019;-91
2023/12/17 09:24:17;;;;;;;18.58;10.75;;;;;;;7.46;100.00;103633.31;6280745;22;20019;-91
2023/12/17 09:26:42;;;;;;;18.33;11.05;;;;;;;7.52;100.00;103643.34;6306860;22;20007;-91
2023/12/17 09:29:08;;;;;;;16.95;10.25;;;;;;;7.45;100.00;103648.97;6306247;22;20341;-89
2023/12/17 09:31:34;;;;;;;19.65;9.98;;;;;;;7.46;100.00;103643.84;6280966;22;20010;-90
2023/12/17 09:33:59;;;;;;;16.15;9.25;;;;;;;7.37;100.00;103631.78;6280942;22;20337;-91
2023/12/17 09:36:27;;;;;;;15.13;9.05;;;;;;;7.45;100.00;103630.56;6280728;22;20015;-91
2023/12/17 09:38:53;;;;;;;16.55;10.38;;;;;;;7.44;100.00;103627.03;6307118;22;20003;-93
2023/12/17 09:41:19;;;;;;;17.73;9.90;;;;;;;7.50;100.00;103635.34;6308702;22;20090;-90
2023/12/17 09:43:45;;;;;;;16.40;9.85;;;;;;;7.51;100.00;103659.94;6315102;22;20104;-93
2023/12/17 09:46:11;;;;;;;17.10;9.77;;;;;;;7.37;100.00;103655.47;6306835;22;20015;-92
2023/12/17 09:48:37;;;;;;;18.85;10.60;;;;;;;7.49;100.00;103654.59;6341421;22;20060;-91
2023/12/17 09:51:02;;;;;;;15.45;9.20;;;;;;;7.46;100.00;103649.09;6286547;22;20014;-92
2023/12/17 09:53:32;;;;;;;20.00;10.60;;;;;;;7.46;100.00;103656.09;6339523;22;20006;-91
2023/12/17 09:55:58;;;;;;;16.65;10.15;;;;;;;7.13;100.00;103597.72;6340298;22;20003;-91
2023/12/17 09:58:26;;;;;;;19.27;10.98;;;;;;;7.47;100.00;103655.28;6340074;22;20006;-91
2023/12/17 10:00:52;;;;;;;18.27;10.55;;;;;;;7.44;100.00;103657.69;6340076;22;20060;-90
2023/12/17 10:03:17;;;;;;;20.27;10.90;;;;;;;7.43;100.00;103653.22;6340112;22;20010;-90
2023/12/17 10:05:49;;;;;;;21.00;10.65;;;;;;;7.45;100.00;103649.91;6312560;22;20013;-91
2023/12/17 10:08:15;;;;;;;23.23;11.35;;;;;;;7.36;100.00;103654.50;6312353;22;20010;-90
2023/12/17 10:10:41;;;;;;;21.70;12.25;;;;;;;7.27;100.00;103643.38;6311898;22;20003;-90
2023/12/17 10:13:07;;;;;;;22.75;11.65;;;;;;;7.25;100.00;103645.91;6338961;22;20038;-93
2023/12/17 10:15:36;;;;;;;22.92;13.02;;;;;;;7.28;100.00;103656.63;6285923;22;20018;-95
2023/12/17 10:18:03;;;;;;;23.70;12.32;;;;;;;7.10;100.00;103628.13;6339107;22;20003;-90
2023/12/17 10:20:28;;;;;;;22.17;12.05;;;;;;;7.16;100.00;103650.53;6285684;22;20498;-91
2023/12/17 10:23:03;;;;;;;27.38;13.10;;;;;;;7.19;100.00;103665.59;6285361;22;20006;-90
2023/12/17 10:25:29;;;;;;;22.45;11.63;;;;;;;7.19;100.00;103662.94;6312042;22;20328;-91
2023/12/17 10:27:57;;;;;;;22.02;12.50;;;;;;;7.17;100.00;103657.59;6285459;22;20018;-89
2023/12/17 10:30:28;;;;;;;26.75;13.13;;;;;;;7.20;100.00;103657.81;6285623;22;20010;-89
2023/12/17 10:32:54;;;;;;;26.00;12.52;;;;;;;7.18;100.00;103648.91;6311125;22;20085;-89
2023/12/17 10:35:23;;;;;;;25.70;13.05;;;;;;;7.20;100.00;103649.03;6338991;22;20028;-89
2023/12/17 10:37:52;;;;;;;27.95;14.93;;;;;;;7.22;100.00;103650.94;6310945;22;20387;-87
2023/12/17 10:40:20;;;;;;;27.08;14.15;;;;;;;7.10;100.00;103617.63;6311067;22;20002;-91
2023/12/17 10:42:47;;;;;;;24.88;13.65;;;;;;;7.23;100.00;103638.69;6285167;22;20429;-90
2023/12/17 10:45:15;;;;;;;30.70;14.45;;;;;;;7.24;100.00;103636.19;6311042;22;20013;-89
2023/12/17 10:47:41;;;;;;;26.17;14.85;;;;;;;7.28;100.00;103632.06;6311569;22;20003;-90
2023/12/17 10:50:08;;;;;;;29.63;14.70;;;;;;;7.17;100.00;103604.09;6338979;22;20015;-90
2023/12/17 10:52:37;;;;;;;33.85;15.10;;;;;;;7.24;100.00;103609.91;6310951;22;20018;-89
2023/12/17 10:55:03;;;;;;;30.02;15.57;;;;;;;7.34;100.00;103613.16;6338235;22;20002;-88
2023/12/17 10:57:34;;;;;;;32.65;16.63;;;;;;;7.33;100.00;103608.69;6285647;22;20026;-89
2023/12/17 11:00:02;;;;;;;28.58;14.93;;;;;;;7.43;100.00;103619.03;6312222;22;20003;-87
2023/12/17 11:02:28;;;;;;;33.65;15.50;;;;;;;7.40;100.00;103589.88;6310807;22;19999;-87
2023/12/17 11:04:56;;;;;;;27.95;15.65;;;;;;;7.53;100.00;103606.59;6338415;22;20056;-88
2023/12/17 11:07:22;;;;;;;31.00;15.25;;;;;;;7.66;100.00;103615.31;6310809;22;20013;-87
2023/12/17 11:09:48;;;;;;;31.65;14.70;;;;;;;7.51;100.00;103574.00;6284656;22;20011;-88
2023/12/17 11:12:17;;;;;;;29.55;15.55;;;;;;;7.70;100.00;103581.41;6338068;22;19999;-88
2023/12/17 11:14:44;;;;;;;30.60;15.05;;;;;;;7.88;100.00;103596.59;6337928;22;20006;-89